sensor_id;sensor_type;location;lat;lon;timestamp;pressure;altitude;pressure_sealevel;temperature;humidity
21658;BME280;10990;48.174;9.782;2023-06-24T00:01:36;95857.41;;;16.32;100.00
21658;BME280;10990;48.174;9.782;2023-06-24T00:04:04;95864.78;;;16.30;100.00
21658;BME280;10990;48.174;9.782;2023-06-24T00:06:30;95861.25;;;16.30;100.00
21658;BME280;10990;48.174;9.782;2023-06-24T00:08:57;95858.88;;;16.35;100.00
21658;BME280;10990;48.174;9.782;2023-06-24T00:11:29;95868.22;;;16.39;100.00
21658;BME280;10990;48.174;9.782;2023-06-24T00:13:57;95882.34;;;16.25;100.00
21658;BME280;10990;48.174;9.782;2023-06-24T00:16:24;95839.44;;;16.26;100.00
21658;BME280;10990;48.174;9.782;2023-06-24T00:18:53;95792.44;;;16.25;100.00
21658;BME280;10990;48.174;9.782;2023-06-24T00:21:20;95751.81;;;16.30;100.00
21658;BME280;10990;48.174;9.782;2023-06-24T00:23:48;95717.03;;;16.23;100.00
21658;BME280;10990;48.174;9.782;2023-06-24T00:26:15;95678.13;;;16.14;100.00
21658;BME280;10990;48.174;9.782;2023-06-24T00:28:44;95661.66;;;16.25;100.00
21658;BME280;10990;48.174;9.782;2023-06-24T00:31:10;95652.25;;;16.29;100.00
21658;BME280;10990;48.174;9.782;2023-06-24T00:33:37;95627.44;;;16.14;100.00
21658;BME280;10990;48.174;9.782;2023-06-24T00:36:05;95598.13;;;16.35;100.00
21658;BME280;10990;48.174;9.782;2023-06-24T00:38:33;95580.34;;;16.43;100.00
21658;BME280;10990;48.174;9.782;2023-06-24T00:41:00;95556.38;;;16.28;100.00
21658;BME280;10990;48.174;9.782;2023-06-24T00:43:27;95516.25;;;16.21;100.00
21658;BME280;10990;48.174;9.782;2023-06-24T00:45:57;95498.16;;;16.38;100.00
21658;BME280;10990;48.174;9.782;2023-06-24T00:48:24;95527.78;;;16.43;100.00
21658;BME280;10990;48.174;9.782;2023-06-24T00:50:51;95549.63;;;16.32;100.00
21658;BME280;10990;48.174;9.782;2023-06-24T00:53:18;95534.53;;;16.39;100.00
21658;BME280;10990;48.174;9.782;2023-06-24T00:55:50;95563.38;;;16.14;100.00
21658;BME280;10990;48.174;9.782;2023-06-24T00:58:18;95558.56;;;16.24;100.00
21658;BME280;10990;48.174;9.782;2023-06-24T01:00:47;95528.28;;;16.32;100.00
21658;BME280;10990;48.174;9.782;2023-06-24T01:03:25;95529.13;;;16.18;100.00
21658;BME280;10990;48.174;9.782;2023-06-24T01:05:54;95495.81;;;16.28;100.00
21658;BME280;10990;48.174;9.782;2023-06-24T01:08:20;95477.53;;;16.10;100.00
21658;BME280;10990;48.174;9.782;2023-06-24T01:10:49;95463.59;;;15.94;100.00
21658;BME280;10990;48.174;9.782;2023-06-24T01:13:17;95433.31;;;16.01;100.00
21658;BME280;10990;48.174;9.782;2023-06-24T01:15:45;95442.28;;;16.15;100.00
21658;BME280;10990;48.174;9.782;2023-06-24T01:18:19;95453.47;;;16.04;100.00
21658;BME280;10990;48.174;9.782;2023-06-24T01:20:52;95449.91;;;15.82;100.00
21658;BME280;10990;48.174;9.782;2023-06-24T01:23:58;95433.84;;;15.75;100.00
21658;BME280;10990;48.174;9.782;2023-06-24T01:29:44;95419.97;;;15.80;100.00
21658;BME280;10990;48.174;9.782;2023-06-24T01:32:21;95408.97;;;15.89;100.00
21658;BME280;10990;48.174;9.782;2023-06-24T01:34:57;95412.13;;;15.78;100.00
21658;BME280;10990;48.174;9.782;2023-06-24T01:37:28;95404.91;;;15.72;100.00
21658;BME280;10990;48.174;9.782;2023-06-24T01:40:02;95377.63;;;15.40;100.00
21658;BME280;10990;48.174;9.782;2023-06-24T01:42:37;95330.06;;;15.59;100.00
21658;BME280;10990;48.174;9.782;2023-06-24T01:45:07;95322.69;;;15.76;100.00
21658;BME280;10990;48.174;9.782;2023-06-24T01:47:37;95320.44;;;15.79;100.00
21658;BME280;10990;48.174;9.782;2023-06-24T01:50:10;95308.16;;;15.78;100.00
21658;BME280;10990;48.174;9.782;2023-06-24T01:52:38;95310.41;;;15.60;100.00
21658;BME280;10990;48.174;9.782;2023-06-24T01:55:08;95292.97;;;15.79;100.00
21658;BME280;10990;48.174;9.782;2023-06-24T01:57:36;95289.81;;;15.54;100.00
21658;BME280;10990;48.174;9.782;2023-06-24T02:00:08;95292.03;;;15.50;100.00
21658;BME280;10990;48.174;9.782;2023-06-24T02:02:49;95277.56;;;15.74;100.00
21658;BME280;10990;48.174;9.782;2023-06-24T02:05:17;95290.50;;;15.77;100.00
21658;BME280;10990;48.174;9.782;2023-06-24T02:07:46;95288.28;;;15.81;100.00
21658;BME280;10990;48.174;9.782;2023-06-24T02:10:15;95290.50;;;15.77;100.00
21658;BME280;10990;48.174;9.782;2023-06-24T02:12:45;95292.53;;;15.75;100.00
21658;BME280;10990;48.174;9.782;2023-06-24T02:15:13;95293.41;;;15.82;100.00
21658;BME280;10990;48.174;9.782;2023-06-24T02:17:40;95301.22;;;15.84;100.00
21658;BME280;10990;48.174;9.782;2023-06-24T02:20:10;95279.38;;;15.74;100.00
21658;BME280;10990;48.174;9.782;2023-06-24T02:22:38;95260.09;;;15.57;100.00
21658;BME280;10990;48.174;9.782;2023-06-24T02:25:06;95239.03;;;15.62;100.00
21658;BME280;10990;48.174;9.782;2023-06-24T02:27:35;95214.78;;;15.57;100.00
21658;BME280;10990;48.174;9.782;2023-06-24T02:30:03;95194.72;;;15.54;100.00
21658;BME280;10990;48.174;9.782;2023-06-24T02:32:30;95208.03;;;15.54;100.00
21658;BME280;10990;48.174;9.782;2023-06-24T02:34:57;95203.69;;;15.53;100.00
21658;BME280;10990;48.174;9.782;2023-06-24T02:37:26;95208.66;;;15.56;100.00
21658;BME280;10990;48.174;9.782;2023-06-24T02:39:52;95203.44;;;15.48;100.00
21658;BME280;10990;48.174;9.782;2023-06-24T02:42:19;95205.72;;;15.51;100.00
21658;BME280;10990;48.174;9.782;2023-06-24T02:44:46;95205.78;;;15.36;100.00
21658;BME280;10990;48.174;9.782;2023-06-24T02:47:14;95210.63;;;15.26;100.00
21658;BME280;10990;48.174;9.782;2023-06-24T02:49:44;95205.91;;;15.07;100.00
21658;BME280;10990;48.174;9.782;2023-06-24T02:52:13;95190.75;;;15.29;100.00
21658;BME280;10990;48.174;9.782;2023-06-24T02:54:41;95194.50;;;15.13;100.00
21658;BME280;10990;48.174;9.782;2023-06-24T02:57:17;95177.59;;;15.20;100.00
21658;BME280;10990;48.174;9.782;2023-06-24T03:00:05;95172.38;;;15.12;100.00
21658;BME280;10990;48.174;9.782;2023-06-24T03:02:57;95166.47;;;15.17;100.00
21658;BME280;10990;48.174;9.782;2023-06-24T03:05:24;95162.97;;;15.16;100.00
21658;BME280;10990;48.174;9.782;2023-06-24T03:07:53;95160.88;;;15.12;100.00
21658;BME280;10990;48.174;9.782;2023-06-24T03:10:24;95144.69;;;14.92;100.00
21658;BME280;10990;48.174;9.782;2023-06-24T03:12:51;95119.28;;;15.11;100.00
21658;BME280;10990;48.174;9.782;2023-06-24T03:15:22;95113.69;;;15.06;100.00
21658;BME280;10990;48.174;9.782;2023-06-24T03:17:50;95099.00;;;15.10;100.00
21658;BME280;10990;48.174;9.782;2023-06-24T03:20:17;95103.38;;;14.96;100.00
21658;BME280;10990;48.174;9.782;2023-06-24T03:22:45;95113.19;;;14.74;100.00
21658;BME280;10990;48.174;9.782;2023-06-24T03:25:14;95084.84;;;14.66;100.00
21658;BME280;10990;48.174;9.782;2023-06-24T03:27:43;95061.66;;;14.45;100.00
21658;BME280;10990;48.174;9.782;2023-06-24T03:30:11;95012.03;;;14.74;100.00
21658;BME280;10990;48.174;9.782;2023-06-24T03:32:40;95009.75;;;14.71;100.00
21658;BME280;10990;48.174;9.782;2023-06-24T03:35:12;95017.91;;;14.69;100.00
21658;BME280;10990;48.174;9.782;2023-06-24T03:37:39;95019.72;;;14.62;100.00
21658;BME280;10990;48.174;9.782;2023-06-24T03:40:07;95004.59;;;14.69;100.00
21658;BME280;10990;48.174;9.782;2023-06-24T03:42:35;95005.19;;;14.65;100.00
21658;BME280;10990;48.174;9.782;2023-06-24T03:45:04;95006.56;;;14.61;100.00
21658;BME280;10990;48.174;9.782;2023-06-24T03:47:31;95009.81;;;14.56;100.00
21658;BME280;10990;48.174;9.782;2023-06-24T03:49:58;94987.94;;;14.61;100.00
21658;BME280;10990;48.174;9.782;2023-06-24T03:52:25;94990.56;;;14.54;100.00
21658;BME280;10990;48.174;9.782;2023-06-24T03:54:52;94991.44;;;14.61;100.00
21658;BME280;10990;48.174;9.782;2023-06-24T03:57:19;94992.00;;;14.56;100.00
21658;BME280;10990;48.174;9.782;2023-06-24T03:59:47;95003.22;;;14.52;100.00
21658;BME280;10990;48.174;9.782;2023-06-24T04:02:15;95007.88;;;14.50;100.00
21658;BME280;10990;48.174;9.782;2023-06-24T04:04:43;95024.34;;;14.53;100.00
21658;BME280;10990;48.174;9.782;2023-06-24T04:07:10;95011.19;;;14.52;100.00
21658;BME280;10990;48.174;9.782;2023-06-24T04:09:37;95016.03;;;14.63;100.00
21658;BME280;10990;48.174;9.782;2023-06-24T04:12:05;95018.28;;;14.66;100.00
21658;BME280;10990;48.174;9.782;2023-06-24T04:14:33;95000.47;;;14.67;100.00
21658;BME280;10990;48.174;9.782;2023-06-24T04:17:00;95001.91;;;14.63;100.00
21658;BME280;10990;48.174;9.782;2023-06-24T04:19:30;94984.91;;;14.64;100.00
21658;BME280;10990;48.174;9.782;2023-06-24T04:21:57;94988.72;;;14.76;100.00
21658;BME280;10990;48.174;9.782;2023-06-24T04:24:23;94978.16;;;14.89;100.00
21658;BME280;10990;48.174;9.782;2023-06-24T04:26:50;94976.56;;;14.95;100.00
21658;BME280;10990;48.174;9.782;2023-06-24T04:29:17;94976.63;;;15.01;100.00
21658;BME280;10990;48.174;9.782;2023-06-24T04:31:43;94978.25;;;15.02;100.00
21658;BME280;10990;48.174;9.782;2023-06-24T04:34:10;94988.78;;;15.11;100.00
21658;BME280;10990;48.174;9.782;2023-06-24T04:36:38;94989.88;;;15.23;100.00
21658;BME280;10990;48.174;9.782;2023-06-24T04:39:05;94989.72;;;15.31;100.00
21658;BME280;10990;48.174;9.782;2023-06-24T04:41:32;94992.19;;;15.33;100.00
21658;BME280;10990;48.174;9.782;2023-06-24T04:43:58;95009.56;;;15.57;100.00
21658;BME280;10990;48.174;9.782;2023-06-24T04:46:25;95036.91;;;15.65;100.00
21658;BME280;10990;48.174;9.782;2023-06-24T04:48:52;95056.16;;;15.67;100.00
21658;BME280;10990;48.174;9.782;2023-06-24T04:51:18;95050.56;;;15.90;100.00
21658;BME280;10990;48.174;9.782;2023-06-24T04:53:46;95051.69;;;16.03;100.00
21658;BME280;10990;48.174;9.782;2023-06-24T04:56:13;95044.16;;;16.26;100.00
21658;BME280;10990;48.174;9.782;2023-06-24T04:58:40;95054.84;;;16.33;100.00
21658;BME280;10990;48.174;9.782;2023-06-24T05:01:07;95063.13;;;16.45;100.00
21658;BME280;10990;48.174;9.782;2023-06-24T05:03:34;95063.59;;;16.75;100.00
21658;BME280;10990;48.174;9.782;2023-06-24T05:06:01;95150.78;;;16.89;100.00
21658;BME280;10990;48.174;9.782;2023-06-24T05:08:27;95269.19;;;16.96;100.00
21658;BME280;10990;48.174;9.782;2023-06-24T05:10:56;95315.75;;;17.22;100.00
21658;BME280;10990;48.174;9.782;2023-06-24T05:13:23;95400.06;;;17.66;100.00
21658;BME280;10990;48.174;9.782;2023-06-24T05:15:49;95481.41;;;17.78;100.00
21658;BME280;10990;48.174;9.782;2023-06-24T05:18:16;95560.47;;;17.87;100.00
21658;BME280;10990;48.174;9.782;2023-06-24T05:20:43;95634.19;;;18.25;100.00
21658;BME280;10990;48.174;9.782;2023-06-24T05:23:09;95721.38;;;18.06;100.00
21658;BME280;10990;48.174;9.782;2023-06-24T05:25:36;95779.84;;;18.30;100.00
21658;BME280;10990;48.174;9.782;2023-06-24T05:28:04;95818.09;;;18.52;100.00
21658;BME280;10990;48.174;9.782;2023-06-24T05:30:31;95876.22;;;18.80;100.00
21658;BME280;10990;48.174;9.782;2023-06-24T05:32:58;95905.81;;;18.72;100.00
21658;BME280;10990;48.174;9.782;2023-06-24T05:35:24;95934.78;;;19.11;100.00
21658;BME280;10990;48.174;9.782;2023-06-24T05:37:51;95975.78;;;18.77;100.00
21658;BME280;10990;48.174;9.782;2023-06-24T05:40:18;96024.16;;;18.54;100.00
21658;BME280;10990;48.174;9.782;2023-06-24T05:42:44;96031.75;;;18.87;100.00
21658;BME280;10990;48.174;9.782;2023-06-24T05:45:12;96058.47;;;18.80;100.00
21658;BME280;10990;48.174;9.782;2023-06-24T05:47:40;96073.31;;;19.25;100.00
21658;BME280;10990;48.174;9.782;2023-06-24T05:50:07;96142.91;;;19.34;100.00
21658;BME280;10990;48.174;9.782;2023-06-24T05:52:34;96181.00;;;19.44;100.00
21658;BME280;10990;48.174;9.782;2023-06-24T05:55:00;96202.50;;;19.65;100.00
21658;BME280;10990;48.174;9.782;2023-06-24T05:57:27;96223.34;;;19.91;100.00
21658;BME280;10990;48.174;9.782;2023-06-24T05:59:54;96257.78;;;20.09;100.00
21658;BME280;10990;48.174;9.782;2023-06-24T06:02:22;96305.94;;;20.11;100.00
21658;BME280;10990;48.174;9.782;2023-06-24T06:04:49;96290.28;;;20.71;100.00
21658;BME280;10990;48.174;9.782;2023-06-24T06:07:16;96358.50;;;20.98;100.00
21658;BME280;10990;48.174;9.782;2023-06-24T06:09:42;96384.53;;;20.97;100.00
21658;BME280;10990;48.174;9.782;2023-06-24T06:12:09;96423.59;;;21.49;100.00
21658;BME280;10990;48.174;9.782;2023-06-24T06:14:37;96449.22;;;21.39;100.00
21658;BME280;10990;48.174;9.782;2023-06-24T06:17:04;96516.22;;;20.63;100.00
21658;BME280;10990;48.174;9.782;2023-06-24T06:19:33;96510.22;;;20.82;100.00
21658;BME280;10990;48.174;9.782;2023-06-24T06:21:59;96489.28;;;21.55;100.00
21658;BME280;10990;48.174;9.782;2023-06-24T06:24:26;96549.59;;;22.37;100.00
21658;BME280;10990;48.174;9.782;2023-06-24T06:26:53;96592.59;;;22.65;100.00
21658;BME280;10990;48.174;9.782;2023-06-24T06:29:19;96607.59;;;22.81;100.00
21658;BME280;10990;48.174;9.782;2023-06-24T06:31:46;96625.09;;;21.81;100.00
21658;BME280;10990;48.174;9.782;2023-06-24T06:34:12;96628.34;;;22.04;100.00
21658;BME280;10990;48.174;9.782;2023-06-24T06:36:41;96638.78;;;22.97;100.00
21658;BME280;10990;48.174;9.782;2023-06-24T06:39:07;96652.69;;;22.52;100.00
21658;BME280;10990;48.174;9.782;2023-06-24T06:41:34;96649.88;;;22.26;100.00
21658;BME280;10990;48.174;9.782;2023-06-24T06:44:01;96660.34;;;22.90;100.00
21658;BME280;10990;48.174;9.782;2023-06-24T06:46:28;96674.19;;;23.62;100.00
21658;BME280;10990;48.174;9.782;2023-06-24T06:48:55;96689.53;;;23.28;100.00
21658;BME280;10990;48.174;9.782;2023-06-24T06:51:21;96707.59;;;23.27;100.00
21658;BME280;10990;48.174;9.782;2023-06-24T06:53:51;96701.03;;;24.43;100.00
21658;BME280;10990;48.174;9.782;2023-06-24T06:56:18;96719.97;;;23.77;100.00
21658;BME280;10990;48.174;9.782;2023-06-24T06:58:45;96704.56;;;24.44;100.00
21658;BME280;10990;48.174;9.782;2023-06-24T07:01:11;96728.63;;;23.59;100.00
21658;BME280;10990;48.174;9.782;2023-06-24T07:03:39;96730.91;;;24.81;100.00
21658;BME280;10990;48.174;9.782;2023-06-24T07:06:05;96742.00;;;24.27;100.00
21658;BME280;10990;48.174;9.782;2023-06-24T07:08:33;96740.19;;;24.99;100.00
21658;BME280;10990;48.174;9.782;2023-06-24T07:11:01;96746.78;;;25.68;100.00
21658;BME280;10990;48.174;9.782;2023-06-24T07:13:28;96749.81;;;24.95;100.00
21658;BME280;10990;48.174;9.782;2023-06-24T07:15:55;96751.09;;;24.79;100.00
21658;BME280;10990;48.174;9.782;2023-06-24T07:18:22;96753.78;;;24.92;100.00
21658;BME280;10990;48.174;9.782;2023-06-24T07:20:49;96747.28;;;26.15;100.00
21658;BME280;10990;48.174;9.782;2023-06-24T07:23:15;96739.03;;;26.53;100.00
21658;BME280;10990;48.174;9.782;2023-06-24T07:25:42;96742.63;;;26.22;100.00
21658;BME280;10990;48.174;9.782;2023-06-24T07:28:10;96749.75;;;25.08;100.00
21658;BME280;10990;48.174;9.782;2023-06-24T07:30:37;96747.13;;;24.81;100.00
21658;BME280;10990;48.174;9.782;2023-06-24T07:33:04;96746.72;;;25.43;100.00
21658;BME280;10990;48.174;9.782;2023-06-24T07:35:31;96753.50;;;25.20;100.00
21658;BME280;10990;48.174;9.782;2023-06-24T07:37:57;96750.31;;;26.00;100.00
21658;BME280;10990;48.174;9.782;2023-06-24T07:40:24;96731.94;;;27.08;100.00
21658;BME280;10990;48.174;9.782;2023-06-24T07:42:51;96759.63;;;25.41;100.00
21658;BME280;10990;48.174;9.782;2023-06-24T07:45:19;96751.91;;;25.44;100.00
21658;BME280;10990;48.174;9.782;2023-06-24T07:47:46;96730.63;;;27.77;100.00
21658;BME280;10990;48.174;9.782;2023-06-24T07:50:12;96730.06;;;27.87;100.00
21658;BME280;10990;48.174;9.782;2023-06-24T07:52:39;96744.34;;;27.03;100.00
21658;BME280;10990;48.174;9.782;2023-06-24T07:55:06;96746.13;;;26.91;100.00
21658;BME280;10990;48.174;9.782;2023-06-24T07:57:33;96738.28;;;27.01;100.00
21658;BME280;10990;48.174;9.782;2023-06-24T08:00:00;96729.44;;;28.38;100.00
21658;BME280;10990;48.174;9.782;2023-06-24T08:02:40;96730.81;;;27.64;100.00
21658;BME280;10990;48.174;9.782;2023-06-24T08:05:07;96735.03;;;27.90;100.00
21658;BME280;10990;48.174;9.782;2023-06-24T08:07:34;96732.53;;;27.46;100.00
21658;BME280;10990;48.174;9.782;2023-06-24T08:10:01;96722.84;;;28.58;100.00
21658;BME280;10990;48.174;9.782;2023-06-24T08:12:28;96741.00;;;27.20;100.00
21658;BME280;10990;48.174;9.782;2023-06-24T08:14:55;96755.25;;;26.60;100.00
21658;BME280;10990;48.174;9.782;2023-06-24T08:17:21;96735.59;;;27.50;100.00
21658;BME280;10990;48.174;9.782;2023-06-24T08:19:49;96728.31;;;27.92;100.00
21658;BME280;10990;48.174;9.782;2023-06-24T08:22:16;96737.53;;;26.57;100.00
21658;BME280;10990;48.174;9.782;2023-06-24T08:24:43;96726.47;;;27.44;100.00
21658;BME280;10990;48.174;9.782;2023-06-24T08:27:09;96752.00;;;25.11;100.00
21658;BME280;10990;48.174;9.782;2023-06-24T08:29:36;96743.25;;;26.86;100.00
21658;BME280;10990;48.174;9.782;2023-06-24T08:32:04;96719.72;;;28.31;100.00
21658;BME280;10990;48.174;9.782;2023-06-24T08:34:32;96711.81;;;29.86;97.99
21658;BME280;10990;48.174;9.782;2023-06-24T08:37:00;96715.03;;;28.62;100.00
21658;BME280;10990;48.174;9.782;2023-06-24T08:39:27;96715.44;;;27.88;100.00
21658;BME280;10990;48.174;9.782;2023-06-24T08:41:53;96721.88;;;27.75;100.00
21658;BME280;10990;48.174;9.782;2023-06-24T08:44:20;96739.06;;;25.65;100.00
21658;BME280;10990;48.174;9.782;2023-06-24T08:46:47;96728.34;;;26.33;100.00
21658;BME280;10990;48.174;9.782;2023-06-24T08:49:19;96729.31;;;26.64;100.00
21658;BME280;10990;48.174;9.782;2023-06-24T08:51:50;96717.50;;;27.74;100.00
21658;BME280;10990;48.174;9.782;2023-06-24T08:54:19;96715.59;;;26.77;100.00
21658;BME280;10990;48.174;9.782;2023-06-24T08:56:46;96723.44;;;26.67;100.00
21658;BME280;10990;48.174;9.782;2023-06-24T08:59:13;96704.56;;;28.11;100.00
21658;BME280;10990;48.174;9.782;2023-06-24T09:01:44;96707.78;;;27.66;100.00
21658;BME280;10990;48.174;9.782;2023-06-24T09:04:11;96713.63;;;26.41;100.00
21658;BME280;10990;48.174;9.782;2023-06-24T09:06:38;96722.69;;;26.60;100.00
21658;BME280;10990;48.174;9.782;2023-06-24T09:09:04;96722.16;;;25.38;100.00
21658;BME280;10990;48.174;9.782;2023-06-24T09:11:33;96720.03;;;26.53;100.00
21658;BME280;10990;48.174;9.782;2023-06-24T09:14:00;96710.91;;;27.03;100.00
21658;BME280;10990;48.174;9.782;2023-06-24T09:16:27;96695.56;;;27.45;100.00
21658;BME280;10990;48.174;9.782;2023-06-24T09:18:55;96716.53;;;26.21;100.00
21658;BME280;10990;48.174;9.782;2023-06-24T09:21:22;96706.00;;;26.75;100.00
21658;BME280;10990;48.174;9.782;2023-06-24T09:23:52;96706.53;;;25.33;100.00
21658;BME280;10990;48.174;9.782;2023-06-24T09:26:19;96703.44;;;25.30;100.00
21658;BME280;10990;48.174;9.782;2023-06-24T09:28:49;96706.22;;;25.48;100.00
21658;BME280;10990;48.174;9.782;2023-06-24T09:31:17;96686.22;;;27.53;100.00
21658;BME280;10990;48.174;9.782;2023-06-24T09:33:45;96678.53;;;28.15;100.00
21658;BME280;10990;48.174;9.782;2023-06-24T09:36:12;96678.78;;;27.90;100.00
21658;BME280;10990;48.174;9.782;2023-06-24T09:38:41;96692.63;;;26.62;100.00
21658;BME280;10990;48.174;9.782;2023-06-24T09:41:10;96701.59;;;25.23;100.00
21658;BME280;10990;48.174;9.782;2023-06-24T09:43:37;96704.34;;;24.38;100.00
21658;BME280;10990;48.174;9.782;2023-06-24T09:46:07;96702.88;;;24.56;100.00
21658;BME280;10990;48.174;9.782;2023-06-24T09:48:34;96710.38;;;24.21;100.00
21658;BME280;10990;48.174;9.782;2023-06-24T09:51:02;96707.44;;;24.35;100.00
21658;BME280;10990;48.174;9.782;2023-06-24T09:53:31;96701.06;;;25.01;100.00
21658;BME280;10990;48.174;9.782;2023-06-24T09:55:59;96695.50;;;25.35;100.00
21658;BME280;10990;48.174;9.782;2023-06-24T09:58:26;96682.59;;;25.62;100.00
21658;BME280;10990;48.174;9.782;2023-06-24T10:00:55;96678.34;;;25.72;100.00
21658;BME280;10990;48.174;9.782;2023-06-24T10:03:23;96684.56;;;25.10;100.00
21658;BME280;10990;48.174;9.782;2023-06-24T10:05:50;96687.91;;;24.53;100.00
21658;BME280;10990;48.174;9.782;2023-06-24T10:08:17;96683.13;;;24.49;100.00
21658;BME280;10990;48.174;9.782;2023-06-24T10:10:45;96682.13;;;25.40;100.00
21658;BME280;10990;48.174;9.782;2023-06-24T10:13:12;96670.88;;;26.00;100.00
21658;BME280;10990;48.174;9.782;2023-06-24T10:15:39;96663.50;;;26.07;100.00
21658;BME280;10990;48.174;9.782;2023-06-24T10:18:35;96675.28;;;25.37;100.00
21658;BME280;10990;48.174;9.782;2023-06-24T10:21:03;96670.94;;;25.30;100.00
21658;BME280;10990;48.174;9.782;2023-06-24T10:23:32;96658.22;;;25.93;100.00
21658;BME280;10990;48.174;9.782;2023-06-24T10:25:59;96656.25;;;25.05;100.00
21658;BME280;10990;48.174;9.782;2023-06-24T10:28:26;96659.28;;;24.84;100.00
21658;BME280;10990;48.174;9.782;2023-06-24T10:30:56;96649.94;;;25.57;100.00
21658;BME280;10990;48.174;9.782;2023-06-24T10:33:24;96659.09;;;25.24;100.00
21658;BME280;10990;48.174;9.782;2023-06-24T10:35:52;96653.09;;;25.09;100.00
21658;BME280;10990;48.174;9.782;2023-06-24T10:38:19;96649.03;;;25.38;100.00
21658;BME280;10990;48.174;9.782;2023-06-24T10:40:49;96642.56;;;24.49;100.00
21658;BME280;10990;48.174;9.782;2023-06-24T10:43:28;96651.97;;;24.13;100.00
21658;BME280;10990;48.174;9.782;2023-06-24T10:45:56;96643.56;;;24.41;100.00
21658;BME280;10990;48.174;9.782;2023-06-24T10:48:23;96644.59;;;25.05;100.00
21658;BME280;10990;48.174;9.782;2023-06-24T10:50:52;96646.34;;;24.86;100.00
21658;BME280;10990;48.174;9.782;2023-06-24T10:53:18;96635.41;;;25.44;100.00
21658;BME280;10990;48.174;9.782;2023-06-24T10:55:45;96633.75;;;24.67;100.00
21658;BME280;10990;48.174;9.782;2023-06-24T10:58:13;96636.00;;;25.21;100.00
21658;BME280;10990;48.174;9.782;2023-06-24T11:00:42;96635.53;;;24.28;100.00
21658;BME280;10990;48.174;9.782;2023-06-24T11:03:13;96628.50;;;24.78;100.00
21658;BME280;10990;48.174;9.782;2023-06-24T11:05:41;96625.13;;;24.90;100.00
21658;BME280;10990;48.174;9.782;2023-06-24T11:08:10;96630.63;;;24.70;100.00
21658;BME280;10990;48.174;9.782;2023-06-24T11:10:45;96626.22;;;24.10;100.00
21658;BME280;10990;48.174;9.782;2023-06-24T11:13:12;96621.78;;;24.36;100.00
21658;BME280;10990;48.174;9.782;2023-06-24T11:15:39;96618.25;;;24.87;100.00
21658;BME280;10990;48.174;9.782;2023-06-24T11:18:08;96620.59;;;24.05;100.00
21658;BME280;10990;48.174;9.782;2023-06-24T11:20:36;96620.69;;;24.57;100.00
21658;BME280;10990;48.174;9.782;2023-06-24T11:23:06;96608.09;;;24.17;100.00
21658;BME280;10990;48.174;9.782;2023-06-24T11:25:38;96608.47;;;24.21;100.00
21658;BME280;10990;48.174;9.782;2023-06-24T11:28:12;96609.97;;;24.04;100.00
21658;BME280;10990;48.174;9.782;2023-06-24T11:30:39;96602.25;;;24.21;100.00
21658;BME280;10990;48.174;9.782;2023-06-24T11:33:06;96588.13;;;25.15;100.00
21658;BME280;10990;48.174;9.782;2023-06-24T11:35:32;96587.47;;;25.13;100.00
21658;BME280;10990;48.174;9.782;2023-06-24T11:38:01;96587.09;;;24.71;100.00
21658;BME280;10990;48.174;9.782;2023-06-24T11:40:30;96575.84;;;24.74;100.00
21658;BME280;10990;48.174;9.782;2023-06-24T11:43:00;96573.91;;;25.20;100.00
21658;BME280;10990;48.174;9.782;2023-06-24T11:45:27;96564.59;;;25.16;100.00
21658;BME280;10990;48.174;9.782;2023-06-24T11:48:02;96575.06;;;24.67;100.00
21658;BME280;10990;48.174;9.782;2023-06-24T11:50:30;96574.81;;;24.75;100.00
21658;BME280;10990;48.174;9.782;2023-06-24T11:52:56;96561.59;;;24.92;100.00
21658;BME280;10990;48.174;9.782;2023-06-24T11:55:25;96562.53;;;24.28;100.00
21658;BME280;10990;48.174;9.782;2023-06-24T11:57:54;96558.91;;;24.54;100.00
21658;BME280;10990;48.174;9.782;2023-06-24T12:00:23;96553.88;;;24.96;100.00
21658;BME280;10990;48.174;9.782;2023-06-24T12:02:52;96552.03;;;24.51;100.00
21658;BME280;10990;48.174;9.782;2023-06-24T12:05:21;96548.28;;;24.91;100.00
21658;BME280;10990;48.174;9.782;2023-06-24T12:07:53;96545.03;;;25.07;100.00
21658;BME280;10990;48.174;9.782;2023-06-24T12:10:20;96553.34;;;24.29;100.00
21658;BME280;10990;48.174;9.782;2023-06-24T12:12:47;96547.47;;;23.80;100.00
21658;BME280;10990;48.174;9.782;2023-06-24T12:15:14;96549.50;;;23.98;100.00
21658;BME280;10990;48.174;9.782;2023-06-24T12:17:42;96533.81;;;24.27;100.00
21658;BME280;10990;48.174;9.782;2023-06-24T12:20:09;96533.97;;;25.15;100.00
21658;BME280;10990;48.174;9.782;2023-06-24T12:22:36;96524.72;;;25.48;100.00
21658;BME280;10990;48.174;9.782;2023-06-24T12:25:04;96522.34;;;25.15;100.00
21658;BME280;10990;48.174;9.782;2023-06-24T12:27:30;96517.75;;;25.09;100.00
21658;BME280;10990;48.174;9.782;2023-06-24T12:29:57;96520.31;;;25.03;100.00
21658;BME280;10990;48.174;9.782;2023-06-24T12:32:24;96524.47;;;25.31;100.00
21658;BME280;10990;48.174;9.782;2023-06-24T12:34:52;96515.78;;;25.47;100.00
21658;BME280;10990;48.174;9.782;2023-06-24T12:37:19;96513.03;;;24.97;100.00
21658;BME280;10990;48.174;9.782;2023-06-24T12:39:46;96512.56;;;25.07;100.00
21658;BME280;10990;48.174;9.782;2023-06-24T12:42:13;96518.00;;;24.30;100.00
21658;BME280;10990;48.174;9.782;2023-06-24T12:44:39;96519.19;;;24.48;100.00
21658;BME280;10990;48.174;9.782;2023-06-24T12:47:06;96519.84;;;24.36;100.00
21658;BME280;10990;48.174;9.782;2023-06-24T12:49:33;96518.91;;;24.11;100.00
21658;BME280;10990;48.174;9.782;2023-06-24T12:52:01;96523.41;;;24.30;100.00
21658;BME280;10990;48.174;9.782;2023-06-24T12:54:28;96503.63;;;24.36;100.00
21658;BME280;10990;48.174;9.782;2023-06-24T12:56:55;96509.00;;;24.43;100.00
21658;BME280;10990;48.174;9.782;2023-06-24T12:59:22;96509.44;;;24.78;100.00